createdAt,value
2019-04-06T00:01:16.190Z,23.00
2019-04-06T00:03:52.036Z,21.60
2019-04-06T00:06:27.713Z,23.13
2019-04-06T00:09:05.024Z,22.70
2019-04-06T00:11:38.860Z,19.57
2019-04-06T00:14:12.535Z,20.27
2019-04-06T00:16:46.210Z,21.27
2019-04-06T00:19:20.010Z,23.70
2019-04-06T00:21:53.756Z,32.67
2019-04-06T00:24:27.618Z,19.50
2019-04-06T00:27:01.804Z,20.27
2019-04-06T00:29:35.394Z,20.03
2019-04-06T00:32:19.990Z,17.53
2019-04-06T00:34:53.769Z,22.20
2019-04-06T00:37:27.850Z,21.03
2019-04-06T00:40:01.598Z,19.93
2019-04-06T00:42:35.366Z,19.27
2019-04-06T00:45:09.404Z,20.10
2019-04-06T00:47:43.284Z,24.27
2019-04-06T00:50:17.131Z,20.40
2019-04-06T00:56:28.943Z,20.23
2019-04-06T00:59:02.634Z,19.30
2019-04-06T01:01:36.640Z,20.87
2019-04-06T01:04:10.258Z,17.33
2019-04-06T01:06:43.876Z,19.90
2019-04-06T01:12:45.185Z,22.10
2019-04-06T01:15:18.977Z,18.47
2019-04-06T01:17:54.108Z,21.17
2019-04-06T01:20:27.899Z,24.70
2019-04-06T01:23:01.603Z,19.30
2019-04-06T01:25:35.897Z,22.20
2019-04-06T01:28:09.563Z,21.80
2019-04-06T01:30:43.250Z,21.93
2019-04-06T01:33:17.145Z,23.20
2019-04-06T01:35:50.849Z,21.63
2019-04-06T01:38:25.419Z,19.37
2019-04-06T01:40:59.069Z,28.97
2019-04-06T01:43:32.941Z,20.87
2019-04-06T01:46:06.545Z,25.83
2019-04-06T01:48:40.323Z,29.67
2019-04-06T01:51:13.922Z,39.17
2019-04-06T01:53:47.628Z,39.10
2019-04-06T01:56:21.357Z,45.23
2019-04-06T01:58:54.943Z,55.83
2019-04-06T02:01:30.323Z,62.60
2019-04-06T02:04:04.046Z,55.13
2019-04-06T02:06:37.885Z,52.90
2019-04-06T02:09:12.186Z,42.30
2019-04-06T02:11:45.913Z,40.53
2019-04-06T02:14:19.584Z,35.10
2019-04-06T02:16:53.316Z,34.60
2019-04-06T02:19:26.882Z,33.63
2019-04-06T02:22:00.571Z,34.47
2019-04-06T02:24:34.296Z,32.00
2019-04-06T02:27:09.571Z,27.67
2019-04-06T02:29:43.397Z,31.70
2019-04-06T02:32:25.064Z,24.40
2019-04-06T02:35:06.504Z,22.47
2019-04-06T02:37:50.873Z,26.43
2019-04-06T02:40:38.223Z,22.10
2019-04-06T02:43:16.432Z,26.33
2019-04-06T02:45:50.280Z,31.03
2019-04-06T02:48:23.999Z,27.50
2019-04-06T02:50:57.591Z,25.80
2019-04-06T02:57:17.241Z,23.57
2019-04-06T02:59:51.293Z,24.53
2019-04-06T03:02:26.481Z,26.33
2019-04-06T03:05:01.262Z,24.53
2019-04-06T03:07:34.997Z,24.03
2019-04-06T03:13:54.440Z,28.70
2019-04-06T03:16:28.076Z,25.13
2019-04-06T03:19:02.006Z,22.57
2019-04-06T03:21:35.998Z,23.87
2019-04-06T03:24:09.823Z,26.17
2019-04-06T03:26:43.400Z,25.83
2019-04-06T03:29:17.210Z,27.67
2019-04-06T03:31:50.978Z,28.50
2019-04-06T03:34:24.676Z,29.13
2019-04-06T03:36:58.552Z,19.87
2019-04-06T03:39:32.535Z,29.80
2019-04-06T03:42:06.762Z,25.80
2019-04-06T03:44:43.517Z,25.80
2019-04-06T03:47:17.220Z,27.73
2019-04-06T03:49:50.924Z,20.80
2019-04-06T03:52:24.556Z,21.90
2019-04-06T03:54:58.364Z,22.20
2019-04-06T03:57:32.137Z,21.80
2019-04-06T04:00:06.562Z,22.53
2019-04-06T04:02:41.492Z,22.50
2019-04-06T04:05:16.356Z,25.10
2019-04-06T04:07:50.000Z,22.90
2019-04-06T04:10:35.685Z,25.67
2019-04-06T04:13:09.313Z,23.90
2019-04-06T04:15:43.483Z,29.93
2019-04-06T04:18:17.260Z,28.23
2019-04-06T04:20:50.873Z,30.37
2019-04-06T04:23:24.592Z,19.93
2019-04-06T04:25:58.265Z,31.83
2019-04-06T04:28:32.264Z,19.40
2019-04-06T04:31:05.965Z,23.00
2019-04-06T04:33:39.657Z,25.00
2019-04-06T04:36:13.459Z,25.03
2019-04-06T04:41:48.638Z,21.53
2019-04-06T04:44:22.316Z,24.60
2019-04-06T04:46:56.279Z,25.30
2019-04-06T04:49:30.039Z,31.00
2019-04-06T04:52:03.759Z,25.47
2019-04-06T04:58:23.817Z,25.60
2019-04-06T05:00:57.632Z,24.03
2019-04-06T05:03:31.298Z,27.33
2019-04-06T05:06:05.472Z,27.30
2019-04-06T05:08:39.282Z,25.27
2019-04-06T05:15:08.389Z,29.60
2019-04-06T05:17:42.223Z,28.03
2019-04-06T05:20:16.105Z,33.37
2019-04-06T05:22:49.977Z,26.87
2019-04-06T05:25:23.769Z,26.57
2019-04-06T05:27:57.416Z,31.50
2019-04-06T05:30:31.223Z,29.27
2019-04-06T05:33:04.931Z,32.03
2019-04-06T05:35:39.678Z,29.37
2019-04-06T05:38:13.253Z,29.93
2019-04-06T05:40:46.871Z,26.67
2019-04-06T05:43:22.403Z,28.03
2019-04-06T05:45:56.043Z,32.97
2019-04-06T05:48:29.635Z,25.93
2019-04-06T05:51:03.281Z,25.37
2019-04-06T05:53:37.189Z,23.23
2019-04-06T05:56:10.804Z,24.30
2019-04-06T05:58:44.891Z,22.57
2019-04-06T06:01:18.773Z,22.53
2019-04-06T06:03:52.476Z,27.13
2019-04-06T06:06:26.106Z,24.17
2019-04-06T06:08:59.721Z,24.63
2019-04-06T06:11:33.348Z,27.57
2019-04-06T06:14:07.642Z,25.87
2019-04-06T06:16:41.453Z,26.60
2019-04-06T06:19:15.195Z,24.80
2019-04-06T06:21:48.810Z,26.60
2019-04-06T06:27:23.935Z,29.07
2019-04-06T06:29:57.733Z,27.57
2019-04-06T06:32:31.760Z,26.83
2019-04-06T06:35:06.447Z,25.07
2019-04-06T06:37:40.978Z,30.57
2019-04-06T06:43:51.739Z,24.30
2019-04-06T06:46:25.432Z,22.17
2019-04-06T06:48:59.703Z,23.43
2019-04-06T06:51:33.379Z,21.40
2019-04-06T06:54:07.523Z,24.07
2019-04-06T07:00:18.082Z,21.87
2019-04-06T07:02:51.870Z,19.70
2019-04-06T07:05:25.723Z,25.53
2019-04-06T07:07:59.700Z,25.13
2019-04-06T07:10:33.328Z,26.73
2019-04-06T07:13:07.048Z,21.70
2019-04-06T07:15:43.122Z,20.43
2019-04-06T07:18:16.309Z,19.40
2019-04-06T07:20:50.638Z,21.12
2019-04-06T07:23:24.436Z,21.37
2019-04-06T07:25:59.050Z,20.70
2019-04-06T07:28:38.218Z,27.15
2019-04-06T07:31:08.107Z,21.68
2019-04-06T07:33:42.138Z,20.97
2019-04-06T07:36:16.739Z,22.93
2019-04-06T07:38:51.550Z,26.37
2019-04-06T07:41:25.496Z,23.90
2019-04-06T07:43:59.247Z,24.93
2019-04-06T07:46:32.931Z,24.90
2019-04-06T07:49:09.363Z,24.40
2019-04-06T07:51:42.193Z,23.67
2019-04-06T07:54:15.853Z,22.70
2019-04-06T07:56:49.428Z,26.50
2019-04-06T07:59:23.039Z,21.33
2019-04-06T08:01:56.900Z,26.33
2019-04-06T08:04:30.698Z,27.33
2019-04-06T08:07:04.890Z,24.40
2019-04-06T08:09:38.534Z,24.67
2019-04-06T08:12:12.297Z,22.40
2019-04-06T08:14:48.168Z,24.17
2019-04-06T08:17:21.774Z,28.80
2019-04-06T08:19:55.589Z,21.80
2019-04-06T08:22:30.324Z,25.73
2019-04-06T08:28:43.406Z,22.90
2019-04-06T08:31:17.304Z,24.40
2019-04-06T08:33:51.095Z,24.70
2019-04-06T08:36:25.943Z,26.20
2019-04-06T08:38:59.841Z,23.77
2019-04-06T08:45:13.527Z,22.53
2019-04-06T08:47:46.615Z,24.30
2019-04-06T08:50:20.351Z,24.07
2019-04-06T08:52:53.958Z,22.10
2019-04-06T08:55:27.688Z,24.27
2019-04-06T08:58:02.666Z,25.53
2019-04-06T09:00:36.777Z,25.87
2019-04-06T09:03:10.439Z,24.77
2019-04-06T09:05:45.578Z,25.10
2019-04-06T09:08:19.336Z,27.30
2019-04-06T09:10:53.014Z,25.50
2019-04-06T09:13:26.694Z,26.60
2019-04-06T09:16:00.279Z,26.43
2019-04-06T09:18:33.967Z,21.67
2019-04-06T09:21:08.078Z,21.47
2019-04-06T09:23:43.172Z,24.30
2019-04-06T09:26:17.890Z,25.40
2019-04-06T09:28:52.490Z,22.87
2019-04-06T09:31:26.440Z,25.47
2019-04-06T09:34:01.517Z,25.13
2019-04-06T09:36:35.319Z,23.00
2019-04-06T09:39:09.139Z,25.57
2019-04-06T09:41:42.934Z,21.63
2019-04-06T09:44:18.413Z,24.73
2019-04-06T09:47:05.950Z,24.03
2019-04-06T09:49:57.830Z,21.47
2019-04-06T09:52:33.323Z,25.80
2019-04-06T09:55:14.590Z,22.40
2019-04-06T09:57:58.139Z,22.53
2019-04-06T10:00:36.014Z,23.10
2019-04-06T10:03:27.736Z,20.93
2019-04-06T10:06:02.949Z,18.60
2019-04-06T10:08:44.234Z,27.67
2019-04-06T10:15:04.142Z,19.60
2019-04-06T10:17:57.708Z,20.27
2019-04-06T10:20:33.049Z,23.53
2019-04-06T10:23:18.680Z,22.07
2019-04-06T10:32:41.260Z,24.23
2019-04-06T10:35:29.303Z,24.83
2019-04-06T10:38:07.659Z,28.53
2019-04-06T10:40:43.115Z,26.90
2019-04-06T10:43:34.830Z,27.87
2019-04-06T10:46:16.218Z,27.47
2019-04-06T10:48:51.523Z,26.10
2019-04-06T10:51:35.826Z,25.43
2019-04-06T10:54:29.494Z,23.57
2019-04-06T10:57:58.166Z,23.80
2019-04-06T11:00:45.600Z,22.87
2019-04-06T11:03:37.306Z,25.63
2019-04-06T11:06:12.660Z,33.47
2019-04-06T11:08:50.808Z,22.33
2019-04-06T11:15:10.066Z,24.00
2019-04-06T11:17:45.530Z,27.53
2019-04-06T11:20:33.159Z,29.87
2019-04-06T11:23:23.897Z,25.30
2019-04-06T11:25:59.279Z,27.07
2019-04-06T11:28:34.551Z,27.90
2019-04-06T11:31:26.356Z,24.73
2019-04-06T11:34:13.554Z,23.43
2019-04-06T11:36:54.602Z,28.57
2019-04-06T11:39:41.712Z,29.03
2019-04-06T11:46:00.694Z,25.40
2019-04-06T11:48:45.848Z,29.83
2019-04-06T11:51:33.373Z,24.17
2019-04-06T11:54:08.950Z,23.93
2019-04-06T11:56:44.233Z,30.50
2019-04-06T11:59:20.126Z,27.03
2019-04-06T12:02:13.977Z,25.30
2019-04-06T12:04:52.170Z,27.70
2019-04-06T12:07:45.602Z,25.17
2019-04-06T12:10:27.220Z,26.97
2019-04-06T12:13:05.691Z,27.47
2019-04-06T12:15:43.743Z,24.17
2019-04-06T12:18:27.595Z,27.33
2019-04-06T12:21:05.889Z,23.83
2019-04-06T12:23:57.647Z,26.67
2019-04-06T12:29:49.935Z,25.30
2019-04-06T12:32:41.156Z,27.10
2019-04-06T12:35:28.390Z,28.87
2019-04-06T12:38:06.364Z,28.20
2019-04-06T12:40:41.666Z,28.47
2019-04-06T12:44:09.800Z,26.63
2019-04-06T12:47:01.226Z,30.80
2019-04-06T12:49:42.024Z,30.43
2019-04-06T12:52:23.731Z,29.73
2019-04-06T12:55:02.126Z,27.13
2019-04-06T13:01:15.812Z,30.90
2019-04-06T13:04:03.166Z,25.13
2019-04-06T13:06:39.288Z,24.00
2019-04-06T13:09:17.558Z,25.87
2019-04-06T13:15:17.751Z,24.57
2019-04-06T13:18:01.709Z,26.57
2019-04-06T13:20:38.279Z,23.57
2019-04-06T13:23:29.699Z,25.90
2019-04-06T13:26:07.856Z,24.27
2019-04-06T13:32:22.861Z,20.40
2019-04-06T13:34:58.157Z,20.83
2019-04-06T13:37:36.037Z,17.10
2019-04-06T13:40:17.407Z,23.80
2019-04-06T13:42:58.610Z,20.23
2019-04-06T13:45:50.284Z,20.43
2019-04-06T13:48:31.270Z,19.77
2019-04-06T13:51:18.702Z,19.40
2019-04-06T13:54:10.386Z,18.73
2019-04-06T13:56:56.129Z,21.17
2019-04-06T13:59:47.721Z,16.87
2019-04-06T14:02:41.315Z,21.53
2019-04-06T14:05:32.810Z,16.00
2019-04-06T14:08:14.352Z,24.33
2019-04-06T14:11:05.943Z,24.20
2019-04-06T14:17:29.777Z,25.37
2019-04-06T14:20:22.919Z,20.97
2019-04-06T14:22:58.407Z,19.47
2019-04-06T14:25:50.293Z,22.10
2019-04-06T14:28:46.127Z,20.80
2019-04-06T14:31:28.773Z,16.93
2019-04-06T14:34:16.554Z,19.70
2019-04-06T14:36:54.999Z,19.47
2019-04-06T14:39:47.160Z,20.83
2019-04-06T14:45:26.123Z,19.30
2019-04-06T14:48:10.308Z,20.80
2019-04-06T14:50:55.033Z,19.67
2019-04-06T14:53:30.465Z,25.50
2019-04-06T14:56:17.980Z,19.93
2019-04-06T15:02:49.243Z,19.27
2019-04-06T15:05:27.533Z,19.13
2019-04-06T15:08:19.544Z,16.27
2019-04-06T15:11:01.921Z,21.27
2019-04-06T15:13:40.751Z,16.67
2019-04-06T15:16:19.094Z,16.97
2019-04-06T15:18:57.714Z,17.10
2019-04-06T15:21:45.086Z,17.67
2019-04-06T15:24:21.162Z,19.83
2019-04-06T15:27:05.892Z,26.77
2019-04-06T15:29:59.592Z,18.80
2019-04-06T15:32:37.479Z,18.23
2019-04-06T15:35:18.543Z,17.93
2019-04-06T15:38:10.378Z,18.37
2019-04-06T15:40:45.745Z,19.53
2019-04-06T15:47:23.795Z,17.37
2019-04-06T15:50:15.926Z,19.80
2019-04-06T15:52:54.791Z,18.27
2019-04-06T15:55:37.787Z,19.13
2019-04-06T15:58:17.099Z,21.60
2019-04-06T16:01:08.312Z,20.00
2019-04-06T16:04:05.563Z,24.03
2019-04-06T16:07:00.856Z,19.17
2019-04-06T16:09:52.528Z,16.87
2019-04-06T16:12:43.756Z,25.80
2019-04-06T16:15:25.270Z,26.70
2019-04-06T16:18:12.586Z,21.40
2019-04-06T16:21:04.094Z,20.70
2019-04-06T16:23:45.730Z,19.53
2019-04-06T16:26:23.748Z,23.53
2019-04-06T16:32:55.774Z,22.70
2019-04-06T16:35:37.681Z,28.03
2019-04-06T16:38:17.044Z,23.90
2019-04-06T16:41:08.650Z,19.57
2019-04-06T16:43:52.996Z,21.20
2019-04-06T16:46:39.967Z,23.37
2019-04-06T16:49:15.590Z,24.63
2019-04-06T16:51:52.330Z,25.73
2019-04-06T16:54:30.676Z,22.27
2019-04-06T16:57:11.739Z,20.90
2019-04-06T16:59:47.461Z,25.87
2019-04-06T17:02:36.243Z,21.70
2019-04-06T17:05:12.130Z,22.07
2019-04-06T17:07:50.255Z,25.73
2019-04-06T17:10:40.441Z,19.87
2019-04-06T17:13:24.746Z,22.50
2019-04-06T17:16:00.025Z,21.50
2019-04-06T17:18:41.327Z,23.33
2019-04-06T17:21:32.037Z,25.07
2019-04-06T17:24:14.367Z,20.40
2019-04-06T17:26:50.311Z,22.63
2019-04-06T17:29:27.746Z,23.60
2019-04-06T17:32:05.806Z,19.83
2019-04-06T17:34:53.079Z,19.33
2019-04-06T17:37:30.249Z,17.73
2019-04-06T17:40:16.585Z,21.27
2019-04-06T17:43:04.223Z,20.27
2019-04-06T17:45:45.433Z,25.47
2019-04-06T17:48:29.684Z,25.37
2019-04-06T17:51:11.135Z,28.03
2019-04-06T17:53:52.542Z,22.87
2019-04-06T17:56:28.404Z,31.37
2019-04-06T18:03:05.874Z,29.30
2019-04-06T18:05:47.192Z,23.57
2019-04-06T18:08:25.171Z,25.30
2019-04-06T18:11:01.706Z,24.87
2019-04-06T18:13:40.204Z,25.05
2019-04-06T18:19:42.965Z,26.67
2019-04-06T18:22:17.468Z,24.60
2019-04-06T18:24:51.480Z,27.30
2019-04-06T18:27:25.271Z,26.30
2019-04-06T18:29:59.142Z,23.37
2019-04-06T18:32:39.922Z,33.50
2019-04-06T18:35:14.251Z,25.77
2019-04-06T18:37:49.671Z,21.67
2019-04-06T18:40:24.860Z,26.63
2019-04-06T18:42:58.726Z,25.13
2019-04-06T18:45:32.562Z,25.60
2019-04-06T18:48:06.715Z,27.77
2019-04-06T18:50:40.750Z,26.77
2019-04-06T18:53:14.959Z,28.00
2019-04-06T18:55:48.677Z,28.33
2019-04-06T18:58:22.379Z,26.90
2019-04-06T19:00:56.264Z,26.07
2019-04-06T19:03:30.076Z,24.23
2019-04-06T19:06:03.777Z,23.47
2019-04-06T19:08:37.581Z,26.53
2019-04-06T19:11:11.557Z,19.77
2019-04-06T19:13:46.754Z,21.33
2019-04-06T19:16:20.729Z,27.57
2019-04-06T19:18:54.642Z,26.07
2019-04-06T19:21:30.359Z,24.20
2019-04-06T19:24:04.356Z,24.17
2019-04-06T19:26:38.691Z,28.40
2019-04-06T19:29:12.541Z,25.40
2019-04-06T19:31:46.780Z,20.67
2019-04-06T19:34:20.667Z,21.57
2019-04-06T19:36:55.449Z,25.77
2019-04-06T19:39:29.249Z,22.73
2019-04-06T19:42:03.195Z,24.03
2019-04-06T19:48:23.460Z,19.90
2019-04-06T19:50:57.837Z,23.17
2019-04-06T19:53:31.883Z,23.87
2019-04-06T19:56:05.852Z,24.17
2019-04-06T19:58:39.574Z,24.30
2019-04-06T20:04:40.925Z,25.73
2019-04-06T20:07:15.056Z,25.30
2019-04-06T20:09:49.052Z,24.40
2019-04-06T20:12:22.859Z,21.30
2019-04-06T20:14:56.539Z,24.00
2019-04-06T20:17:30.267Z,24.80
2019-04-06T20:20:06.506Z,21.57
2019-04-06T20:22:40.252Z,19.50
2019-04-06T20:25:15.023Z,24.83
2019-04-06T20:27:48.773Z,23.13
2019-04-06T20:30:23.003Z,22.97
2019-04-06T20:32:56.716Z,23.77
2019-04-06T20:35:30.487Z,26.60
2019-04-06T20:38:04.283Z,24.67
2019-04-06T20:40:37.978Z,26.37
2019-04-06T20:43:11.949Z,25.13
2019-04-06T20:45:48.110Z,23.20
2019-04-06T20:48:21.516Z,24.70
2019-04-06T20:50:55.364Z,25.87
2019-04-06T20:53:29.116Z,24.23
2019-04-06T20:56:02.797Z,26.47
2019-04-06T20:58:36.499Z,24.57
2019-04-06T21:01:10.258Z,27.40
2019-04-06T21:03:43.927Z,24.30
2019-04-06T21:06:17.946Z,28.43
2019-04-06T21:08:51.737Z,24.07
2019-04-06T21:11:25.470Z,26.00
2019-04-06T21:13:59.501Z,20.50
2019-04-06T21:16:33.258Z,21.57
2019-04-06T21:19:07.117Z,26.03
2019-04-06T21:21:40.686Z,21.17
2019-04-06T21:24:14.382Z,22.30
2019-04-06T21:26:48.128Z,22.30
2019-04-06T21:29:21.906Z,24.03
2019-04-06T21:31:55.568Z,23.50
2019-04-06T21:34:29.347Z,28.50
2019-04-06T21:37:03.038Z,24.27
2019-04-06T21:39:37.107Z,25.13
2019-04-06T21:42:11.672Z,25.77
2019-04-06T21:44:45.414Z,25.60
2019-04-06T21:47:19.419Z,28.50
2019-04-06T21:49:54.629Z,29.20
2019-04-06T21:52:28.602Z,28.23
2019-04-06T21:55:02.456Z,31.60
2019-04-06T21:57:36.469Z,32.30
2019-04-06T22:03:48.442Z,36.57
2019-04-06T22:06:24.393Z,36.83
2019-04-06T22:08:57.747Z,34.37
2019-04-06T22:11:32.064Z,34.17
2019-04-06T22:14:05.855Z,37.67
2019-04-06T22:20:17.541Z,37.73
2019-04-06T22:22:51.311Z,47.47
2019-04-06T22:25:25.235Z,39.47
2019-04-06T22:27:59.520Z,41.60
2019-04-06T22:30:33.851Z,46.40
2019-04-06T22:33:08.121Z,53.47
2019-04-06T22:35:41.924Z,55.67
2019-04-06T22:38:15.802Z,51.87
2019-04-06T22:40:50.336Z,56.30
2019-04-06T22:43:24.212Z,58.17
2019-04-06T22:45:57.860Z,52.83
2019-04-06T22:48:31.569Z,60.10
2019-04-06T22:51:05.694Z,61.00
2019-04-06T22:53:39.716Z,60.67
2019-04-06T22:56:13.560Z,62.60
2019-04-06T22:58:48.247Z,61.50
2019-04-06T23:01:24.118Z,60.47
2019-04-06T23:04:16.098Z,61.83
2019-04-06T23:07:00.826Z,64.03
2019-04-06T23:09:34.506Z,60.67
2019-04-06T23:12:08.645Z,69.43
2019-04-06T23:14:42.401Z,63.63
2019-04-06T23:17:16.904Z,70.60
2019-04-06T23:19:50.707Z,79.33
2019-04-06T23:22:24.389Z,73.23
2019-04-06T23:24:59.026Z,73.87
2019-04-06T23:27:32.891Z,76.60
2019-04-06T23:30:07.715Z,73.83
2019-04-06T23:32:42.227Z,72.27
2019-04-06T23:35:16.671Z,76.70
2019-04-06T23:37:50.335Z,74.17
2019-04-06T23:40:24.298Z,68.03
2019-04-06T23:42:58.344Z,71.33
2019-04-06T23:45:32.017Z,75.97
2019-04-06T23:48:05.969Z,71.10
2019-04-06T23:50:39.741Z,72.07
2019-04-06T23:53:13.657Z,70.27
2019-04-06T23:55:47.826Z,76.03
2019-04-06T23:58:21.623Z,66.33
